createdAt,value
2019-03-27T00:02:11.952Z,6.90
2019-03-27T00:04:42.689Z,6.90
2019-03-27T00:07:13.511Z,6.80
2019-03-27T00:09:44.654Z,6.80
2019-03-27T00:12:15.811Z,6.80
2019-03-27T00:14:46.907Z,6.70
2019-03-27T00:17:17.760Z,6.70
2019-03-27T00:19:48.709Z,6.70
2019-03-27T00:22:19.817Z,6.60
2019-03-27T00:24:50.733Z,6.60
2019-03-27T00:27:21.345Z,6.60
2019-03-27T00:29:52.356Z,6.50
2019-03-27T00:32:23.106Z,6.60
2019-03-27T00:34:54.259Z,6.70
2019-03-27T00:37:26.053Z,6.70
2019-03-27T00:39:56.688Z,6.70
2019-03-27T00:42:27.485Z,6.50
2019-03-27T00:44:58.728Z,6.50
2019-03-27T00:47:30.362Z,6.40
2019-03-27T00:50:01.197Z,6.40
2019-03-27T00:52:32.189Z,6.30
2019-03-27T00:55:02.813Z,6.40
2019-03-27T00:57:34.214Z,6.50
2019-03-27T01:00:06.277Z,6.40
2019-03-27T01:02:38.395Z,6.40
2019-03-27T01:05:09.028Z,6.30
2019-03-27T01:07:40.259Z,6.30
2019-03-27T01:10:11.070Z,6.30
2019-03-27T01:12:41.776Z,6.30
2019-03-27T01:15:12.629Z,6.30
2019-03-27T01:17:43.393Z,6.30
2019-03-27T01:20:14.629Z,6.40
2019-03-27T01:22:45.313Z,6.40
2019-03-27T01:25:16.185Z,6.40
2019-03-27T01:27:46.880Z,6.50
2019-03-27T01:30:17.689Z,6.50
2019-03-27T01:32:48.321Z,6.50
2019-03-27T01:35:19.272Z,6.50
2019-03-27T01:37:50.201Z,6.50
2019-03-27T01:40:21.000Z,6.50
2019-03-27T01:42:51.756Z,6.50
2019-03-27T01:45:22.353Z,6.60
2019-03-27T01:47:53.349Z,6.60
2019-03-27T01:50:23.873Z,6.70
2019-03-27T01:52:54.828Z,6.60
2019-03-27T01:55:25.793Z,6.70
2019-03-27T01:57:56.760Z,6.70
2019-03-27T02:00:27.608Z,6.60
2019-03-27T02:02:58.457Z,6.60
2019-03-27T02:05:29.395Z,6.70
2019-03-27T02:08:00.356Z,6.70
2019-03-27T02:10:31.427Z,6.70
2019-03-27T02:13:02.036Z,6.70
2019-03-27T02:15:33.079Z,6.70
2019-03-27T02:18:04.313Z,6.70
2019-03-27T02:20:35.030Z,6.60
2019-03-27T02:23:05.803Z,6.60
2019-03-27T02:25:36.907Z,6.70
2019-03-27T02:28:07.620Z,6.70
2019-03-27T02:30:39.427Z,6.70
2019-03-27T02:33:10.674Z,6.60
2019-03-27T02:35:41.737Z,6.60
2019-03-27T02:38:12.562Z,6.60
2019-03-27T02:40:43.593Z,6.60
2019-03-27T02:43:14.414Z,6.60
2019-03-27T02:45:45.674Z,6.60
2019-03-27T02:48:16.652Z,6.60
2019-03-27T02:50:47.634Z,6.60
2019-03-27T02:53:19.107Z,6.60
2019-03-27T02:55:50.132Z,6.50
2019-03-27T02:58:20.782Z,6.50
2019-03-27T03:00:51.717Z,6.40
2019-03-27T03:03:22.440Z,6.40
2019-03-27T03:05:53.187Z,6.30
2019-03-27T03:08:23.923Z,6.30
2019-03-27T03:10:54.969Z,6.30
2019-03-27T03:13:25.692Z,6.30
2019-03-27T03:15:56.837Z,6.20
2019-03-27T03:18:27.887Z,6.10
2019-03-27T03:20:59.017Z,6.10
2019-03-27T03:23:31.638Z,6.20
2019-03-27T03:26:02.431Z,6.20
2019-03-27T03:28:33.166Z,6.10
2019-03-27T03:31:04.537Z,6.10
2019-03-27T03:33:35.502Z,6.10
2019-03-27T03:36:06.686Z,6.20
2019-03-27T03:38:37.940Z,6.20
2019-03-27T03:41:08.724Z,6.20
2019-03-27T03:43:39.771Z,6.20
2019-03-27T03:46:10.761Z,6.30
2019-03-27T03:48:42.337Z,6.20
2019-03-27T03:51:13.832Z,6.20
2019-03-27T03:53:45.254Z,6.10
2019-03-27T03:56:17.589Z,6.10
2019-03-27T03:58:49.150Z,6.10
2019-03-27T04:01:22.995Z,6.10
2019-03-27T04:03:55.562Z,6.10
2019-03-27T04:06:27.309Z,6.10
2019-03-27T04:08:57.990Z,6.00
2019-03-27T04:11:29.092Z,6.10
2019-03-27T04:13:59.889Z,6.00
2019-03-27T04:16:31.282Z,6.00
2019-03-27T04:19:02.099Z,6.00
2019-03-27T04:21:33.137Z,6.00
2019-03-27T04:24:03.898Z,6.00
2019-03-27T04:26:34.529Z,6.00
2019-03-27T04:29:05.449Z,6.00
2019-03-27T04:31:36.115Z,6.00
2019-03-27T04:34:06.741Z,5.90
2019-03-27T04:36:37.677Z,5.80
2019-03-27T04:39:08.806Z,5.80
2019-03-27T04:41:39.749Z,5.90
2019-03-27T04:44:11.535Z,5.90
2019-03-27T04:46:42.081Z,5.90
2019-03-27T04:49:13.153Z,5.90
2019-03-27T04:51:44.275Z,5.90
2019-03-27T04:54:15.201Z,5.90
2019-03-27T04:56:46.029Z,5.90
2019-03-27T04:59:16.813Z,6.00
2019-03-27T05:01:47.672Z,6.00
2019-03-27T05:04:18.627Z,5.90
2019-03-27T05:06:50.150Z,6.00
2019-03-27T05:09:20.825Z,6.00
2019-03-27T05:11:51.973Z,6.00
2019-03-27T05:14:23.020Z,6.00
2019-03-27T05:16:53.612Z,6.00
2019-03-27T05:19:24.869Z,6.00
2019-03-27T05:21:55.933Z,6.10
2019-03-27T05:24:26.657Z,6.00
2019-03-27T05:26:57.965Z,6.10
2019-03-27T05:29:28.837Z,6.10
2019-03-27T05:31:59.558Z,6.20
2019-03-27T05:34:30.104Z,6.20
2019-03-27T05:37:01.030Z,6.20
2019-03-27T05:39:31.805Z,6.10
2019-03-27T05:42:03.001Z,6.10
2019-03-27T05:44:34.471Z,6.00
2019-03-27T05:47:08.034Z,6.10
2019-03-27T05:49:43.785Z,6.20
2019-03-27T05:52:14.565Z,6.20
2019-03-27T05:54:45.213Z,6.20
2019-03-27T05:57:16.437Z,6.10
2019-03-27T05:59:47.582Z,6.10
2019-03-27T06:02:18.722Z,6.10
2019-03-27T06:04:49.913Z,6.10
2019-03-27T06:07:20.809Z,6.20
2019-03-27T06:09:51.975Z,6.10
2019-03-27T06:12:22.567Z,6.30
2019-03-27T06:14:53.215Z,6.20
2019-03-27T06:17:25.094Z,6.20
2019-03-27T06:19:57.116Z,6.20
2019-03-27T06:22:28.095Z,6.20
2019-03-27T06:24:58.996Z,6.20
2019-03-27T06:27:29.664Z,6.30
2019-03-27T06:30:00.597Z,6.40
2019-03-27T06:32:31.266Z,6.40
2019-03-27T06:35:02.255Z,6.40
2019-03-27T06:37:33.093Z,6.40
2019-03-27T06:40:04.856Z,6.50
2019-03-27T06:42:35.833Z,6.60
2019-03-27T06:45:06.995Z,6.60
2019-03-27T06:47:38.193Z,6.70
2019-03-27T06:50:09.597Z,6.70
2019-03-27T06:52:40.107Z,6.80
2019-03-27T06:55:11.119Z,6.70
2019-03-27T06:57:42.356Z,6.60
2019-03-27T07:00:13.701Z,6.70
2019-03-27T07:02:44.262Z,6.80
2019-03-27T07:05:15.151Z,6.80
2019-03-27T07:07:45.950Z,6.90
2019-03-27T07:10:17.488Z,7.00
2019-03-27T07:12:48.410Z,7.10
2019-03-27T07:15:19.274Z,7.10
2019-03-27T07:17:50.397Z,6.90
2019-03-27T07:20:21.106Z,6.80
2019-03-27T07:22:52.050Z,7.10
2019-03-27T07:25:23.338Z,7.30
2019-03-27T07:27:54.092Z,7.40
2019-03-27T07:30:24.789Z,7.60
2019-03-27T07:32:55.513Z,7.70
2019-03-27T07:35:26.308Z,7.80
2019-03-27T07:37:57.190Z,8.10
2019-03-27T07:40:28.143Z,8.50
2019-03-27T07:42:58.949Z,8.50
2019-03-27T07:45:29.625Z,8.40
2019-03-27T07:48:01.051Z,8.50
2019-03-27T07:50:32.166Z,8.50
2019-03-27T07:53:03.002Z,8.10
2019-03-27T07:55:34.006Z,8.80
2019-03-27T07:58:05.721Z,9.50
2019-03-27T08:00:36.268Z,9.90
2019-03-27T08:03:07.103Z,10.40
2019-03-27T08:05:38.158Z,10.50
2019-03-27T08:08:09.061Z,10.80
2019-03-27T08:22:40.843Z,11.10
2019-03-27T08:25:11.658Z,10.40
2019-03-27T08:27:42.014Z,10.90
2019-03-27T08:30:15.156Z,10.40
2019-03-27T08:32:45.555Z,10.70
2019-03-27T08:35:16.137Z,10.80
2019-03-27T08:37:46.692Z,9.90
2019-03-27T08:40:17.392Z,10.60
2019-03-27T08:42:47.751Z,10.00
2019-03-27T08:45:22.834Z,9.40
2019-03-27T08:47:53.196Z,9.10
2019-03-27T08:50:23.583Z,9.80
2019-03-27T08:52:54.053Z,10.20
2019-03-27T08:55:24.437Z,10.90
2019-03-27T08:57:54.820Z,11.60
2019-03-27T09:00:46.804Z,12.80
2019-03-27T09:03:17.423Z,12.30
2019-03-27T09:05:47.994Z,12.40
2019-03-27T09:08:18.777Z,11.70
2019-03-27T09:10:49.284Z,11.70
2019-03-27T09:13:19.825Z,11.10
2019-03-27T09:15:51.988Z,10.00
2019-03-27T09:18:22.358Z,9.90
2019-03-27T09:20:52.721Z,10.50
